DRZA/AJY METAR and TAF weather

Enter ICAO airport designator
Station Type Date Time Source
DRZA METAR 2022/12/05 14:00 UTC NOAA

DRZA 051400Z 10019KT 6000 NSC 33/01 Q1015


Station Type Date Time Source
DRZA Decoded METAR 2022/12/05 14:00 UTC NOAA

Agadez, Niger (DRZA) 16-58N 007-59E 502M
Dec 05, 2022 - 09:00 AM EST / 2022.12.05 1400 UTC
Wind: from the E (100 degrees) at 22 MPH (19 KT):0
Visibility: 3 mile(s):0
Temperature: 91 F (33 C)
Dew Point: 33 F (1 C)
Relative Humidity: 13%
Pressure (altimeter): 29.97 in. Hg (1015 hPa)
ob: DRZA 051400Z 10019KT 6000 NSC 33/01 Q1015
cycle: 14

Station Type Date Time Source
DRZA TAF 2022/12/05 14:26 UTC NOAA

TAF
AMD DRZA 051350Z 0514/0612 08015KT 8000 NSC
TEMPO 0607/0612 10025KT 2000 BLDU

Example: see airport list